Time;durP1;ratioP1;P1;durP2;ratioP2;P2;SDS_P1;SDS_P2;PMS_P1;PMS_P2;Temp;Humidity;BMP_temperature;BMP_pressure;BME280_temperature;BME280_humidity;BME280_pressure;Samples;Min_cycle;Max_cycle;Signal;HPM_P1;HPM_P2
2023/03/23 00:01:05;;;;;;;61.97;28.33;;;;;;;7.62;100.00;63735.00;5032022;28;20218;-55
2023/03/23 00:03:34;;;;;;;44.67;25.57;;;;;;;7.46;100.00;63715.03;5031982;28;20214;-53
2023/03/23 00:06:05;;;;;;;50.37;25.57;;;;;;;7.44;100.00;63715.91;5014171;28;20190;-53
2023/03/23 00:08:46;;;;;;;53.33;25.63;;;;;;;7.54;100.00;63726.25;5014138;28;20194;-57
2023/03/23 00:11:21;;;;;;;40.37;25.67;;;;;;;7.53;100.00;63725.19;5032104;28;20194;-59
2023/03/23 00:13:51;;;;;;;67.80;26.97;;;;;;;7.71;100.00;63741.78;5031713;28;20201;-57
2023/03/23 00:16:18;;;;;;;42.93;23.90;;;;;;;7.45;100.00;63717.00;5031922;28;20175;-57
2023/03/23 00:18:52;;;;;;;51.97;24.63;;;;;;;7.85;100.00;63760.09;5031865;28;20248;-57
2023/03/23 00:21:19;;;;;;;37.67;21.90;;;;;;;7.65;100.00;63738.28;5031841;28;20217;-57
2023/03/23 00:23:44;;;;;;;38.90;23.53;;;;;;;7.59;100.00;63729.22;5031736;28;20237;-58
2023/03/23 00:26:10;;;;;;;45.10;23.63;;;;;;;7.85;100.00;63757.06;5031718;28;20302;-58
2023/03/23 00:28:38;;;;;;;51.57;23.87;;;;;;;7.83;100.00;63754.88;5031672;28;20221;-58
2023/03/23 00:31:07;;;;;;;40.17;22.47;;;;;;;7.71;100.00;63744.81;5031642;28;20202;-60
2023/03/23 00:33:37;;;;;;;35.30;20.80;;;;;;;7.55;100.00;63729.88;5031516;28;20186;-57
2023/03/23 00:36:11;;;;;;;35.60;21.60;;;;;;;7.58;100.00;63733.13;5013748;28;20190;-58
2023/03/23 00:38:37;;;;;;;34.23;21.30;;;;;;;7.56;100.00;63728.44;5031408;28;20225;-59
2023/03/23 00:41:03;;;;;;;34.73;21.63;;;;;;;7.64;100.00;63735.22;5031303;28;20210;-56
2023/03/23 00:43:30;;;;;;;34.63;20.93;;;;;;;7.86;100.00;63761.19;5013552;28;20301;-55
2023/03/23 00:46:00;;;;;;;31.17;21.47;;;;;;;7.68;100.00;63739.03;5013671;28;20190;-54
2023/03/23 00:48:27;;;;;;;32.13;21.30;;;;;;;7.78;100.00;63749.41;5031325;28;20261;-57
2023/03/23 00:50:53;;;;;;;34.23;20.40;;;;;;;7.84;100.00;63758.47;5031102;28;20216;-57
2023/03/23 00:53:19;;;;;;;30.83;20.50;;;;;;;7.81;100.00;63755.75;5031005;28;20669;-58
2023/03/23 00:55:46;;;;;;;31.60;20.17;;;;;;;7.88;100.00;63760.88;5031181;28;20696;-57
2023/03/23 00:58:12;;;;;;;26.07;18.43;;;;;;;7.84;100.00;63759.00;5031062;28;20189;-57
2023/03/23 01:00:38;;;;;;;26.23;17.90;;;;;;;7.66;100.00;63739.38;5038351;22;20309;-58
2023/03/23 01:03:05;;;;;;;26.97;16.80;;;;;;;7.92;100.00;63767.75;5031214;28;20206;-57
2023/03/23 01:05:35;;;;;;;25.73;16.43;;;;;;;7.95;100.00;63771.03;5030834;28;20715;-58
2023/03/23 01:08:01;;;;;;;22.73;14.30;;;;;;;7.81;100.00;63752.69;5030882;28;20202;-54
2023/03/23 01:10:27;;;;;;;21.47;13.23;;;;;;;7.77;100.00;63751.38;5031322;28;20207;-55
2023/03/23 01:12:54;;;;;;;18.63;12.80;;;;;;;7.70;100.00;63743.72;5031010;28;20193;-55
2023/03/23 01:15:20;;;;;;;19.90;12.77;;;;;;;7.69;100.00;63737.09;5031286;28;20221;-54
2023/03/23 01:17:46;;;;;;;18.53;12.90;;;;;;;7.57;100.00;63729.56;5031216;28;20198;-54
2023/03/23 01:20:14;;;;;;;17.57;12.03;;;;;;;7.51;100.00;63723.00;5030866;28;20671;-53
2023/03/23 01:22:41;;;;;;;15.43;10.37;;;;;;;7.45;100.00;63717.00;5031045;28;20190;-53
2023/03/23 01:25:08;;;;;;;16.63;10.93;;;;;;;7.41;100.00;63712.09;5031078;28;20695;-54
2023/03/23 01:27:33;;;;;;;20.30;11.50;;;;;;;7.28;100.00;63697.91;5030914;28;20198;-53
2023/03/23 01:29:59;;;;;;;18.17;12.40;;;;;;;7.22;100.00;63689.41;5031197;28;20720;-54
2023/03/23 01:32:24;;;;;;;19.13;13.43;;;;;;;7.26;100.00;63695.72;5030786;28;20194;-54
2023/03/23 01:34:50;;;;;;;21.23;12.67;;;;;;;7.25;100.00;63694.63;5031072;28;20679;-54
2023/03/23 01:37:16;;;;;;;21.77;13.47;;;;;;;7.17;100.00;63686.44;5030730;28;20190;-53
2023/03/23 01:39:41;;;;;;;24.23;15.00;;;;;;;7.12;100.00;63680.44;5030416;28;20696;-53
2023/03/23 01:42:16;;;;;;;24.53;16.17;;;;;;;7.10;100.00;63675.75;5030717;28;20259;-54
2023/03/23 01:44:44;;;;;;;32.20;19.43;;;;;;;7.09;100.00;63677.19;5029180;28;20222;-53
2023/03/23 01:47:09;;;;;;;36.60;19.63;;;;;;;7.09;100.00;63677.19;5030842;28;20289;-54
2023/03/23 01:49:42;;;;;;;39.57;21.40;;;;;;;7.16;100.00;63682.31;5030592;28;20300;-54
2023/03/23 01:52:16;;;;;;;36.83;22.37;;;;;;;7.11;100.00;63677.41;5030492;28;20668;-54
2023/03/23 01:54:44;;;;;;;38.43;23.07;;;;;;;7.19;100.00;63688.63;5030813;28;20267;-53
2023/03/23 01:57:15;;;;;;;38.80;24.50;;;;;;;7.24;100.00;63693.53;5030497;28;20195;-58
2023/03/23 01:59:44;;;;;;;41.50;24.07;;;;;;;7.22;100.00;63688.84;5031273;28;20296;-53
2023/03/23 02:02:10;;;;;;;37.23;23.93;;;;;;;7.27;100.00;63694.84;5034174;28;20189;-54
2023/03/23 02:04:36;;;;;;;36.27;22.20;;;;;;;7.29;100.00;63699.53;5034057;28;20218;-53
2023/03/23 02:07:03;;;;;;;35.83;21.63;;;;;;;7.30;100.00;63700.63;5033873;28;20244;-53
2023/03/23 02:09:29;;;;;;;41.33;23.67;;;;;;;7.47;100.00;63719.16;5033862;28;20214;-59
2023/03/23 02:11:56;;;;;;;35.93;22.10;;;;;;;7.49;100.00;63720.81;5033522;28;20228;-54
2023/03/23 02:14:24;;;;;;;35.03;22.00;;;;;;;7.54;100.00;63726.25;5033709;28;20562;-55
2023/03/23 02:17:01;;;;;;;34.30;21.43;;;;;;;7.56;100.00;63725.94;5033589;28;20182;-54
2023/03/23 02:19:32;;;;;;;29.73;19.97;;;;;;;7.66;100.00;63741.88;5034108;28;20210;-54
2023/03/23 02:22:35;;;;;;;28.70;18.10;;;;;;;7.70;100.00;63743.19;5033557;28;20175;-53
2023/03/23 02:25:18;;;;;;;26.70;18.30;;;;;;;7.83;100.00;63757.38;5033565;28;20215;-53
2023/03/23 02:27:54;;;;;;;24.80;15.97;;;;;;;7.79;100.00;63753.00;5033367;28;20189;-53
2023/03/23 02:30:37;;;;;;;24.80;16.40;;;;;;;7.76;100.00;63750.28;5033602;28;20210;-55
2023/03/23 02:33:11;;;;;;;24.20;15.80;;;;;;;7.86;100.00;63761.19;5033419;28;20264;-57
2023/03/23 02:35:45;;;;;;;26.37;16.23;;;;;;;7.86;100.00;63761.19;5033210;28;20364;-58
2023/03/23 02:38:18;;;;;;;34.83;17.90;;;;;;;8.09;100.00;63785.75;5033618;28;20240;-58
2023/03/23 02:40:47;;;;;;;29.57;18.10;;;;;;;8.07;100.00;63784.13;5033223;28;20287;-58
2023/03/23 02:43:25;;;;;;;26.83;17.27;;;;;;;7.91;100.00;63761.09;5033241;28;20220;-57
2023/03/23 02:45:52;;;;;;;28.17;16.20;;;;;;;8.06;100.00;63782.50;5033249;28;20214;-57
2023/03/23 02:48:22;;;;;;;25.87;16.30;;;;;;;7.87;100.00;63762.28;5033101;28;20201;-54
2023/03/23 02:50:51;;;;;;;28.30;17.37;;;;;;;7.52;100.00;63724.63;5033041;28;20271;-55
2023/03/23 02:53:22;;;;;;;27.27;17.03;;;;;;;6.73;100.00;63639.00;5032968;28;20277;-57
2023/03/23 02:55:49;;;;;;;26.57;17.33;;;;;;;7.43;100.00;63714.28;5033155;28;20210;-55
2023/03/23 02:58:15;;;;;;;29.90;17.67;;;;;;;7.29;100.00;63699.53;5032814;28;20186;-54
2023/03/23 03:00:41;;;;;;;28.53;18.53;;;;;;;7.17;100.00;63685.91;5032676;28;20692;-56
2023/03/23 03:03:20;;;;;;;38.87;22.53;;;;;;;7.22;100.00;63694.41;5015148;28;20201;-54
2023/03/23 03:06:10;;;;;;;38.10;22.47;;;;;;;7.10;100.00;63678.25;5033121;28;20349;-53
2023/03/23 03:08:41;;;;;;;41.27;22.57;;;;;;;6.93;100.00;63659.75;5032865;28;20672;-55
2023/03/23 03:11:12;;;;;;;42.80;21.10;;;;;;;7.27;100.00;63697.34;5031803;28;20194;-54
2023/03/23 03:14:17;;;;;;;58.97;23.60;;;;;;;6.83;100.00;63649.38;5032700;28;20715;-55
2023/03/23 03:17:06;;;;;;;45.20;22.57;;;;;;;6.73;100.00;63640.97;5032772;28;20193;-54
2023/03/23 03:19:39;;;;;;;36.77;21.97;;;;;;;6.62;100.00;63627.03;5032599;28;20727;-58
2023/03/23 03:22:07;;;;;;;42.67;22.80;;;;;;;6.57;100.00;63621.56;5032589;28;20652;-55
2023/03/23 03:24:37;;;;;;;38.93;21.03;;;;;;;6.74;100.00;63640.13;5032582;28;20307;-54
2023/03/23 03:27:06;;;;;;;39.77;20.93;;;;;;;6.79;100.00;63643.06;5032471;28;20185;-53
2023/03/23 03:29:41;;;;;;;32.80;18.83;;;;;;;6.65;100.00;63627.25;5032623;28;20249;-53
2023/03/23 03:32:11;;;;;;;31.97;19.00;;;;;;;6.64;100.00;63626.16;5032314;28;20186;-53
2023/03/23 03:34:37;;;;;;;28.07;17.10;;;;;;;6.92;100.00;63656.13;5032579;28;20248;-53
2023/03/23 03:37:05;;;;;;;22.60;12.60;;;;;;;6.65;100.00;63629.75;5014462;28;20206;-54
2023/03/23 03:39:34;;;;;;;20.90;13.20;;;;;;;6.56;100.00;63617.44;5014195;28;20220;-54
2023/03/23 03:42:00;;;;;;;17.00;10.60;;;;;;;6.48;100.00;63614.28;5032272;28;20189;-56
2023/03/23 03:44:26;;;;;;;15.80;10.03;;;;;;;6.35;100.00;63597.59;5032382;28;20620;-54
2023/03/23 03:46:51;;;;;;;16.13;10.03;;;;;;;6.09;100.00;63568.72;5032243;28;20201;-55
2023/03/23 03:49:17;;;;;;;13.87;10.73;;;;;;;6.14;100.00;63577.19;5040043;22;20225;-58
2023/03/23 03:51:42;;;;;;;12.80;9.30;;;;;;;6.03;100.00;63562.19;5032404;28;20593;-58
2023/03/23 03:54:08;;;;;;;14.40;9.40;;;;;;;5.95;100.00;63554.00;5032278;28;20253;-57
2023/03/23 03:56:40;;;;;;;15.37;9.57;;;;;;;5.98;100.00;63559.75;5032141;28;20197;-57
2023/03/23 03:59:07;;;;;;;14.30;9.47;;;;;;;6.05;100.00;63564.34;5032224;28;20214;-58
2023/03/23 04:01:34;;;;;;;10.90;8.40;;;;;;;6.14;100.00;63574.16;5014209;28;20233;-59
2023/03/23 04:04:00;;;;;;;15.07;9.27;;;;;;;6.08;100.00;63567.63;5032224;28;20268;-57
2023/03/23 04:06:27;;;;;;;13.27;8.67;;;;;;;6.06;100.00;63567.94;5032133;28;20597;-57
2023/03/23 04:08:55;;;;;;;13.23;8.87;;;;;;;6.20;100.00;63580.72;5032145;28;20263;-56
2023/03/23 04:11:20;;;;;;;14.70;9.37;;;;;;;6.17;100.00;63575.47;5032005;28;20190;-55
2023/03/23 04:13:46;;;;;;;14.13;9.80;;;;;;;6.20;100.00;63580.72;5031850;28;20651;-56
2023/03/23 04:16:11;;;;;;;17.93;9.77;;;;;;;6.35;100.00;63595.09;5032097;28;20272;-56
2023/03/23 04:18:36;;;;;;;14.77;9.40;;;;;;;6.54;100.00;63617.75;5031825;28;20637;-56
2023/03/23 04:21:04;;;;;;;17.07;8.87;;;;;;;6.49;100.00;63609.78;5031933;28;20217;-55
2023/03/23 04:23:33;;;;;;;15.97;9.17;;;;;;;6.30;100.00;63589.09;5031329;28;20204;-55
2023/03/23 04:25:59;;;;;;;13.90;9.67;;;;;;;6.33;100.00;63595.41;5013898;28;20224;-55
2023/03/23 04:28:26;;;;;;;13.03;9.23;;;;;;;6.24;100.00;63585.59;5031637;28;20261;-56
2023/03/23 04:30:55;;;;;;;16.33;9.53;;;;;;;6.45;100.00;63608.50;5031626;28;20639;-55
2023/03/23 04:33:26;;;;;;;18.43;10.87;;;;;;;6.41;100.00;63604.13;5013609;28;20202;-56
2023/03/23 04:35:53;;;;;;;17.53;10.27;;;;;;;6.43;100.00;63603.25;5031398;28;20206;-55
2023/03/23 04:38:20;;;;;;;22.10;12.47;;;;;;;6.42;100.00;63602.19;5031399;28;20186;-55
2023/03/23 04:40:47;;;;;;;13.97;8.90;;;;;;;6.49;100.00;63612.84;5031344;28;20209;-55
2023/03/23 04:43:14;;;;;;;14.43;9.77;;;;;;;6.61;100.00;63625.38;5031328;28;20653;-55
2023/03/23 04:45:45;;;;;;;15.37;9.43;;;;;;;6.39;100.00;63596.94;5013747;28;20214;-55
2023/03/23 04:48:11;;;;;;;15.33;9.87;;;;;;;6.26;100.00;63587.78;5031381;28;20186;-55
2023/03/23 04:50:38;;;;;;;17.60;11.50;;;;;;;6.09;100.00;63571.75;5031525;28;20280;-56
2023/03/23 04:53:04;;;;;;;20.67;12.80;;;;;;;6.23;100.00;63584.50;5031240;28;20186;-56
2023/03/23 04:55:38;;;;;;;19.37;12.87;;;;;;;6.51;100.00;63615.03;5031192;28;20217;-54
2023/03/23 04:58:05;;;;;;;23.27;13.00;;;;;;;6.75;100.00;63643.16;5031593;28;20181;-58
2023/03/23 05:00:32;;;;;;;21.83;14.87;;;;;;;6.89;100.00;63655.38;5013036;28;20609;-57
2023/03/23 05:02:58;;;;;;;21.63;13.47;;;;;;;7.06;100.00;63674.47;5031156;28;20191;-54
2023/03/23 05:05:25;;;;;;;20.87;13.80;;;;;;;7.20;100.00;63689.19;5031393;28;20221;-56
2023/03/23 05:07:51;;;;;;;22.50;14.93;;;;;;;7.12;100.00;63680.44;4980868;28;20190;-55
2023/03/23 05:10:17;;;;;;;21.60;14.50;;;;;;;7.21;100.00;63690.81;5031305;28;20216;-57
2023/03/23 05:12:43;;;;;;;25.17;14.87;;;;;;;7.22;100.00;63691.91;5030937;28;20289;-53
2023/03/23 05:15:11;;;;;;;25.33;15.97;;;;;;;7.28;100.00;63697.91;5031143;28;20317;-59
2023/03/23 05:17:36;;;;;;;25.90;15.10;;;;;;;7.42;100.00;63713.19;5013139;28;20194;-58
2023/03/23 05:20:07;;;;;;;24.50;16.67;;;;;;;7.35;100.00;63705.56;5030699;28;20229;-57
2023/03/23 05:22:32;;;;;;;25.00;15.80;;;;;;;7.14;100.00;63682.63;5031012;28;20273;-58
2023/03/23 05:25:05;;;;;;;25.87;17.97;;;;;;;7.35;100.00;63706.06;5030690;28;20285;-57
2023/03/23 05:27:32;;;;;;;24.33;16.87;;;;;;;7.87;100.00;63759.78;5012846;28;20189;-56
2023/03/23 05:29:58;;;;;;;26.87;17.70;;;;;;;8.76;100.00;63858.41;5031066;28;20233;-59
2023/03/23 05:32:29;;;;;;;26.93;16.50;;;;;;;10.19;100.00;64013.69;5030577;28;20633;-60
2023/03/23 05:34:58;;;;;;;27.43;15.27;;;;;;;10.22;100.00;64016.97;5030095;28;20218;-58
2023/03/23 05:37:26;;;;;;;21.57;14.53;;;;;;;11.75;100.00;64184.53;5030831;28;20193;-58
2023/03/23 05:39:55;;;;;;;20.60;13.63;;;;;;;10.83;100.00;64081.22;5038026;22;20229;-59
2023/03/23 05:42:22;;;;;;;19.40;13.43;;;;;;;10.34;100.00;64027.59;5030386;28;20197;-58
2023/03/23 05:44:47;;;;;;;18.27;12.80;;;;;;;9.47;100.00;63932.94;5030520;28;20260;-60
2023/03/23 05:47:14;;;;;;;17.27;13.23;;;;;;;9.20;100.00;63901.47;5030557;28;20213;-60
2023/03/23 05:49:39;;;;;;;21.63;13.23;;;;;;;8.42;100.00;63819.84;5030568;28;20209;-59
2023/03/23 05:52:04;;;;;;;22.23;13.47;;;;;;;8.53;100.00;63830.75;5030558;28;20264;-54
2023/03/23 05:54:30;;;;;;;17.03;12.37;;;;;;;8.52;100.00;63832.19;5030573;28;20225;-60
2023/03/23 05:56:55;;;;;;;19.00;12.60;;;;;;;8.40;100.00;63817.13;5030561;28;20186;-53
2023/03/23 05:59:21;;;;;;;21.93;13.67;;;;;;;8.22;100.00;63802.47;5030226;28;20221;-54
2023/03/23 06:01:46;;;;;;;22.83;13.23;;;;;;;8.39;100.00;63819.09;5030268;28;20251;-54
2023/03/23 06:04:13;;;;;;;21.37;14.37;;;;;;;8.23;100.00;63801.59;5030145;28;20249;-53
2023/03/23 06:06:41;;;;;;;22.80;15.37;;;;;;;8.35;100.00;63812.22;5030507;28;20204;-54
2023/03/23 06:09:07;;;;;;;25.13;14.33;;;;;;;8.33;100.00;63810.03;5030256;28;20556;-55
2023/03/23 06:11:33;;;;;;;20.13;13.47;;;;;;;8.44;100.00;63824.53;5012385;28;20186;-54
2023/03/23 06:13:58;;;;;;;19.40;14.07;;;;;;;8.58;100.00;63838.75;5030195;28;20218;-54
2023/03/23 06:16:24;;;;;;;23.27;14.13;;;;;;;7.77;100.00;63751.38;5030212;28;20182;-59
2023/03/23 06:18:50;;;;;;;22.50;14.23;;;;;;;7.81;100.00;63753.22;5030124;28;20293;-59
2023/03/23 06:21:18;;;;;;;21.43;14.10;;;;;;;8.01;100.00;63777.56;5029898;28;20648;-57
2023/03/23 06:23:45;;;;;;;20.47;13.77;;;;;;;7.97;100.00;63770.16;5030128;28;20225;-59
2023/03/23 06:26:14;;;;;;;22.77;14.50;;;;;;;8.14;100.00;63794.25;5030076;28;20217;-55
2023/03/23 06:28:40;;;;;;;18.27;12.93;;;;;;;8.55;100.00;63835.47;5029944;28;20237;-59
2023/03/23 06:31:07;;;;;;;22.90;14.77;;;;;;;8.30;100.00;63808.72;5030115;28;20194;-57
2023/03/23 06:33:35;;;;;;;23.80;16.00;;;;;;;8.41;100.00;63818.75;5029965;28;20265;-60
2023/03/23 06:36:01;;;;;;;26.57;16.03;;;;;;;8.60;100.00;63838.41;5012103;28;20244;-55
2023/03/23 06:38:26;;;;;;;20.50;15.03;;;;;;;8.79;100.00;63862.22;5029723;28;20186;-54
2023/03/23 06:40:53;;;;;;;19.87;13.47;;;;;;;8.86;100.00;63869.34;5029556;28;20228;-54
2023/03/23 06:43:19;;;;;;;25.47;14.53;;;;;;;9.03;100.00;63885.41;5029883;28;20211;-55
2023/03/23 06:45:45;;;;;;;22.53;15.40;;;;;;;9.23;100.00;63907.28;5030326;28;20285;-57
2023/03/23 06:48:10;;;;;;;20.80;14.40;;;;;;;11.52;100.00;64153.72;5033270;28;20642;-56
2023/03/23 06:50:36;;;;;;;24.27;14.47;;;;;;;13.33;100.00;64354.22;5033064;28;20265;-55
2023/03/23 06:53:01;;;;;;;19.03;14.27;;;;;;;13.60;100.00;64380.22;5033215;28;20274;-55
2023/03/23 06:55:27;;;;;;;23.93;13.70;;;;;;;14.03;100.00;64427.44;5015283;28;20214;-57
2023/03/23 06:57:52;;;;;;;23.17;14.70;;;;;;;14.51;96.87;64482.72;5033251;28;20248;-57
2023/03/23 07:00:18;;;;;;;19.07;12.20;;;;;;;14.21;92.46;64449.75;5033317;28;20226;-58
2023/03/23 07:02:44;;;;;;;23.83;13.00;;;;;;;14.42;87.79;64472.84;5032965;28;20194;-55
2023/03/23 07:05:10;;;;;;;18.48;12.93;;;;;;;13.99;86.62;64425.59;5032670;28;20210;-59
2023/03/23 07:07:37;;;;;;;20.27;13.80;;;;;;;14.27;83.83;64453.81;5032796;28;20198;-57
2023/03/23 07:10:06;;;;;;;20.98;15.52;;;;;;;13.65;82.31;64386.28;5033154;28;20678;-54
2023/03/23 07:12:31;;;;;;;23.65;15.48;;;;;;;12.95;82.47;64309.44;5032971;28;20197;-56
2023/03/23 07:14:57;;;;;;;20.98;14.98;;;;;;;12.23;85.66;64236.59;5032988;28;20209;-55
2023/03/23 07:17:23;;;;;;;25.83;15.67;;;;;;;11.88;88.82;64197.69;5032611;28;20202;-58
2023/03/23 07:19:48;;;;;;;22.98;15.32;;;;;;;11.63;90.91;64168.84;5032772;28;20241;-54
2023/03/23 07:22:14;;;;;;;20.70;15.20;;;;;;;11.74;90.13;64178.41;5032842;28;20668;-56
2023/03/23 07:24:40;;;;;;;19.33;13.50;;;;;;;11.63;90.50;64168.31;5032655;28;20315;-56
2023/03/23 07:27:05;;;;;;;22.70;13.40;;;;;;;11.69;91.52;64172.94;5032716;28;20587;-59
2023/03/23 07:29:34;;;;;;;23.23;14.17;;;;;;;11.72;92.56;64175.66;5032763;28;20241;-58
2023/03/23 07:32:00;;;;;;;24.00;15.57;;;;;;;11.93;93.64;64200.63;5032390;28;20732;-59
2023/03/23 07:34:25;;;;;;;27.10;16.27;;;;;;;11.82;93.98;64189.69;5032730;28;20249;-58
2023/03/23 07:36:51;;;;;;;35.33;18.97;;;;;;;11.82;95.24;64186.59;5032397;28;20270;-59
2023/03/23 07:39:16;;;;;;;28.10;18.23;;;;;;;11.68;94.84;64174.34;5031279;28;20307;-62
2023/03/23 07:41:42;;;;;;;25.50;17.83;;;;;;;11.40;93.29;64143.09;5032343;28;20235;-60
2023/03/23 07:44:07;;;;;;;28.10;18.27;;;;;;;11.20;94.88;64121.19;5032605;28;20221;-59
2023/03/23 07:46:33;;;;;;;28.00;17.87;;;;;;;11.14;95.35;64114.63;5032346;28;20218;-54
2023/03/23 07:49:00;;;;;;;23.77;17.27;;;;;;;11.16;96.69;64117.34;5032475;28;20210;-57
2023/03/23 07:51:25;;;;;;;24.53;15.97;;;;;;;11.39;95.69;64144.53;5032186;28;20273;-57
2023/03/23 07:53:51;;;;;;;50.17;31.53;;;;;;;11.66;96.63;64174.13;5032053;28;20260;-55
2023/03/23 07:56:19;;;;;;;25.73;18.07;;;;;;;11.64;93.98;64169.94;5032116;28;20278;-55
2023/03/23 07:58:45;;;;;;;27.70;17.50;;;;;;;11.75;94.83;64179.50;5031248;28;20194;-56
2023/03/23 08:01:12;;;;;;;29.13;18.73;;;;;;;11.86;95.26;64192.97;5031863;28;20283;-55
2023/03/23 08:03:38;;;;;;;28.60;19.00;;;;;;;12.00;91.58;64208.84;5031988;28;20247;-61
2023/03/23 08:06:04;;;;;;;31.50;18.50;;;;;;;11.86;93.28;64193.50;5032178;28;20197;-59
2023/03/23 08:08:30;;;;;;;27.80;18.50;;;;;;;11.84;95.42;64191.31;5032225;28;20182;-58
2023/03/23 08:10:55;;;;;;;27.60;17.30;;;;;;;12.11;94.16;64220.38;5032177;28;20670;-61
2023/03/23 08:13:21;;;;;;;26.13;18.50;;;;;;;11.94;92.28;64201.75;5031931;28;20547;-59
2023/03/23 08:15:46;;;;;;;31.47;17.87;;;;;;;12.33;93.08;64241.97;5031747;28;20237;-53
2023/03/23 08:18:12;;;;;;;26.60;18.00;;;;;;;12.27;88.39;64240.44;5031899;28;20201;-57
2023/03/23 08:20:38;;;;;;;27.93;17.10;;;;;;;12.57;86.23;64270.81;5031798;28;20245;-58
2023/03/23 08:23:05;;;;;;;28.50;17.87;;;;;;;12.41;87.05;64253.25;5032077;28;20190;-55
2023/03/23 08:25:34;;;;;;;28.33;18.03;;;;;;;12.85;87.32;64301.53;5013836;28;20218;-59
2023/03/23 08:28:01;;;;;;;27.87;17.30;;;;;;;12.99;86.08;64314.34;5031592;28;20189;-59
2023/03/23 08:30:29;;;;;;;26.83;16.33;;;;;;;12.91;84.35;64305.56;5013996;28;20632;-56
2023/03/23 08:32:56;;;;;;;31.90;17.90;;;;;;;12.85;83.69;64298.44;5031328;28;20730;-57
2023/03/23 08:35:22;;;;;;;28.17;15.73;;;;;;;13.10;82.28;64328.44;5031425;28;20229;-55
2023/03/23 08:37:52;;;;;;;27.23;17.57;;;;;;;13.40;82.13;64359.38;5031656;28;20182;-56
2023/03/23 08:40:19;;;;;;;21.03;15.57;;;;;;;13.64;76.80;64387.69;5031525;28;20310;-59
2023/03/23 08:42:47;;;;;;;19.43;14.33;;;;;;;13.43;73.77;64362.13;5031437;28;20679;-56
2023/03/23 08:45:16;;;;;;;23.47;14.53;;;;;;;13.64;75.90;64387.16;5031422;28;20220;-57
2023/03/23 08:47:42;;;;;;;16.90;11.90;;;;;;;13.82;70.65;64407.47;5031202;28;20217;-55
2023/03/23 08:50:11;;;;;;;18.40;12.03;;;;;;;14.14;73.08;64442.59;5031077;28;20214;-55
2023/03/23 08:52:37;;;;;;;19.30;11.60;;;;;;;14.50;67.38;64479.09;5031306;28;20186;-62
2023/03/23 08:55:05;;;;;;;14.17;9.73;;;;;;;14.97;64.46;64530.19;5031087;28;20280;-57
2023/03/23 08:57:31;;;;;;;18.75;10.63;;;;;;;15.43;64.58;64583.34;5013303;28;20194;-57
2023/03/23 09:00:01;;;;;;;13.13;8.95;;;;;;;15.23;60.85;64558.25;5031381;28;20218;-55
2023/03/23 09:02:27;;;;;;;13.52;8.90;;;;;;;14.40;61.85;64468.13;5031282;28;20189;-58
2023/03/23 09:04:54;;;;;;;10.57;7.00;;;;;;;14.99;59.16;64534.94;5031287;28;20294;-56
2023/03/23 09:07:19;;;;;;;6.28;5.38;;;;;;;15.42;55.99;64581.66;5031156;28;20178;-59
2023/03/23 09:09:45;;;;;;;8.15;5.88;;;;;;;15.05;56.44;64542.09;5031139;28;20260;-59
2023/03/23 09:12:11;;;;;;;6.97;5.95;;;;;;;15.43;55.69;64580.25;5031173;28;20190;-57
2023/03/23 09:14:37;;;;;;;7.65;5.60;;;;;;;15.48;56.19;64588.28;5031037;28;20210;-58
2023/03/23 09:17:05;;;;;;;8.40;6.22;;;;;;;14.93;54.95;64525.81;5030893;28;20186;-58
2023/03/23 09:19:33;;;;;;;7.50;6.10;;;;;;;14.65;57.16;64497.56;5012847;28;20273;-58
2023/03/23 09:21:59;;;;;;;8.82;6.82;;;;;;;14.78;59.02;64506.78;5013136;28;20652;-59
2023/03/23 09:24:25;;;;;;;11.57;7.60;;;;;;;15.00;59.76;64534.06;5031099;28;20210;-59
2023/03/23 09:26:50;;;;;;;11.20;8.13;;;;;;;14.95;59.94;64528.00;5030853;28;20190;-57
2023/03/23 09:29:16;;;;;;;11.15;7.88;;;;;;;16.03;57.61;64648.81;5030914;28;20217;-59
2023/03/23 09:31:42;;;;;;;11.48;7.82;;;;;;;15.48;58.23;64586.31;5030783;28;20268;-58
2023/03/23 09:34:11;;;;;;;9.82;7.10;;;;;;;15.27;57.34;64562.66;5038307;22;20218;-58
2023/03/23 09:36:39;;;;;;;9.48;7.13;;;;;;;15.89;57.95;64633.97;5012893;28;20347;-54
2023/03/23 09:39:09;;;;;;;11.07;7.00;;;;;;;16.55;52.90;64702.97;5030647;28;20240;-53
2023/03/23 09:42:03;;;;;;;8.73;6.50;;;;;;;17.34;53.22;64789.44;5030390;28;20214;-54
2023/03/23 09:44:35;;;;;;;9.23;6.43;;;;;;;17.00;49.24;64754.53;5030721;28;20198;-55
2023/03/23 09:47:09;;;;;;;8.15;6.72;;;;;;;17.44;50.63;64803.56;5030640;28;20194;-56
2023/03/23 09:49:46;;;;;;;8.48;6.22;;;;;;;17.50;49.07;64809.63;5030598;28;20296;-55
2023/03/23 09:52:14;;;;;;;9.10;6.32;;;;;;;18.19;47.35;64882.59;5030258;28;20182;-55
2023/03/23 09:54:44;;;;;;;11.55;6.38;;;;;;;18.34;48.34;64902.22;5030524;28;20268;-57
2023/03/23 09:57:23;;;;;;;7.45;6.55;;;;;;;18.50;47.22;64919.38;5030568;28;20286;-57
2023/03/23 10:00:16;;;;;;;8.27;6.03;;;;;;;18.70;46.88;64941.44;5030623;28;20202;-54
2023/03/23 10:02:52;;;;;;;7.57;6.30;;;;;;;18.77;45.64;64946.03;5030471;28;20198;-55
2023/03/23 10:05:35;;;;;;;7.53;6.07;;;;;;;18.60;45.00;64927.28;5030809;28;20210;-58
2023/03/23 10:08:08;;;;;;;9.15;6.00;;;;;;;18.95;44.05;64966.44;5030286;28;20186;-56
2023/03/23 10:11:01;;;;;;;6.03;5.43;;;;;;;19.51;44.33;65027.75;5030160;28;20214;-56
2023/03/23 10:13:52;;;;;;;8.55;6.40;;;;;;;19.01;43.72;64969.97;5030040;28;20190;-54
2023/03/23 10:16:27;;;;;;;7.55;6.35;;;;;;;19.45;45.74;65020.56;5030118;28;20669;-57
2023/03/23 10:19:02;;;;;;;6.88;5.95;;;;;;;19.87;44.05;65064.94;5012394;28;20213;-56
2023/03/23 10:21:31;;;;;;;11.65;6.03;;;;;;;19.75;41.82;65051.69;5014200;28;20294;-55
2023/03/23 10:24:03;;;;;;;6.80;6.10;;;;;;;19.14;43.27;64987.44;5033375;28;20703;-59
2023/03/23 10:27:00;;;;;;;7.95;6.05;;;;;;;19.49;43.67;65024.97;5033746;28;20214;-59
2023/03/23 10:29:47;;;;;;;7.63;5.90;;;;;;;20.02;43.23;65084.06;5033672;28;20225;-54
2023/03/23 10:32:17;;;;;;;6.20;5.60;;;;;;;20.23;41.78;65106.16;5033579;28;20214;-58
2023/03/23 10:34:54;;;;;;;7.25;5.38;;;;;;;20.75;43.18;65164.19;5033834;28;20210;-58
2023/03/23 10:37:27;;;;;;;6.43;5.45;;;;;;;20.95;41.68;65185.19;5033468;28;20190;-57
2023/03/23 10:39:59;;;;;;;10.05;5.63;;;;;;;21.05;39.62;65194.25;5033666;28;20676;-58
2023/03/23 10:42:37;;;;;;;8.15;5.90;;;;;;;20.68;40.45;65156.47;5033478;28;20700;-58
2023/03/23 10:45:15;;;;;;;7.03;5.25;;;;;;;20.59;42.81;65146.50;5033293;28;20306;-56
2023/03/23 10:47:45;;;;;;;6.50;5.90;;;;;;;20.86;41.76;65175.78;5015656;28;20352;-56
2023/03/23 10:50:16;;;;;;;8.05;5.85;;;;;;;21.34;41.30;65225.75;5033247;28;20698;-56
2023/03/23 10:52:44;;;;;;;6.50;5.82;;;;;;;21.53;41.08;65249.88;5033403;28;20201;-55
2023/03/23 10:55:09;;;;;;;7.65;5.68;;;;;;;21.64;40.02;65258.94;5033500;28;20186;-56
2023/03/23 10:57:37;;;;;;;6.25;5.50;;;;;;;20.83;40.43;65175.59;5033209;28;20561;-54
2023/03/23 11:00:18;;;;;;;8.00;5.60;;;;;;;19.76;39.63;65054.78;5032797;28;20688;-57
2023/03/23 11:02:58;;;;;;;7.53;5.57;;;;;;;20.05;41.77;65087.38;5033114;28;20220;-59
2023/03/23 11:05:27;;;;;;;7.25;5.47;;;;;;;20.64;41.87;65151.47;5015230;28;20617;-58
2023/03/23 11:07:55;;;;;;;9.10;5.55;;;;;;;21.12;40.86;65204.00;5032823;28;20197;-59
2023/03/23 11:10:37;;;;;;;7.38;5.32;;;;;;;21.30;40.66;65221.91;5032835;28;20581;-55
2023/03/23 11:13:04;;;;;;;8.07;5.38;;;;;;;20.63;38.53;65152.94;5014559;28;20205;-57
2023/03/23 11:15:48;;;;;;;7.88;5.85;;;;;;;20.79;38.79;65168.03;5033137;28;20198;-55
2023/03/23 11:18:26;;;;;;;6.88;5.47;;;;;;;21.20;39.41;65210.84;5014813;28;20285;-56
2023/03/23 11:20:56;;;;;;;7.38;5.60;;;;;;;21.47;37.92;65240.16;5032564;28;20680;-56
2023/03/23 11:23:29;;;;;;;6.45;5.70;;;;;;;21.00;36.77;65191.28;5032655;28;20223;-56
2023/03/23 11:26:07;;;;;;;6.93;5.70;;;;;;;20.74;38.96;65163.09;5032477;28;20210;-56
2023/03/23 11:28:36;;;;;;;7.95;5.97;;;;;;;20.41;37.84;65126.06;5032638;28;20209;-57
2023/03/23 11:31:05;;;;;;;7.72;5.25;;;;;;;20.79;40.40;65168.03;5032599;28;20190;-56